sensor_id;sensor_type;location;lat;lon;timestamp;P1;durP1;ratioP1;P2;durP2;ratioP2
11817;SDS011;5966;52.402;5.322;2023-06-10T00:00:22;5.63;;;3.28;;
11817;SDS011;5966;52.402;5.322;2023-06-10T00:02:50;7.07;;;3.72;;
11817;SDS011;5966;52.402;5.322;2023-06-10T00:05:20;6.55;;;3.30;;
11817;SDS011;5966;52.402;5.322;2023-06-10T00:07:48;6.53;;;3.78;;
11817;SDS011;5966;52.402;5.322;2023-06-10T00:10:16;4.22;;;3.40;;
11817;SDS011;5966;52.402;5.322;2023-06-10T00:12:44;7.47;;;3.55;;
11817;SDS011;5966;52.402;5.322;2023-06-10T00:15:12;12.70;;;3.75;;
11817;SDS011;5966;52.402;5.322;2023-06-10T00:17:41;5.25;;;3.55;;
11817;SDS011;5966;52.402;5.322;2023-06-10T00:20:09;5.50;;;3.50;;
11817;SDS011;5966;52.402;5.322;2023-06-10T00:22:41;6.22;;;3.42;;
11817;SDS011;5966;52.402;5.322;2023-06-10T00:25:12;3.92;;;3.38;;
11817;SDS011;5966;52.402;5.322;2023-06-10T00:27:40;6.78;;;3.88;;
11817;SDS011;5966;52.402;5.322;2023-06-10T00:30:09;4.90;;;3.95;;
11817;SDS011;5966;52.402;5.322;2023-06-10T00:32:38;5.07;;;3.60;;
11817;SDS011;5966;52.402;5.322;2023-06-10T00:35:06;6.88;;;3.42;;
11817;SDS011;5966;52.402;5.322;2023-06-10T00:37:35;8.52;;;3.53;;
11817;SDS011;5966;52.402;5.322;2023-06-10T00:40:06;5.97;;;3.45;;
11817;SDS011;5966;52.402;5.322;2023-06-10T00:42:36;6.25;;;3.80;;
11817;SDS011;5966;52.402;5.322;2023-06-10T00:45:04;5.80;;;3.67;;
11817;SDS011;5966;52.402;5.322;2023-06-10T00:47:34;4.78;;;3.47;;
11817;SDS011;5966;52.402;5.322;2023-06-10T00:50:04;6.97;;;3.85;;
11817;SDS011;5966;52.402;5.322;2023-06-10T00:52:33;6.53;;;3.65;;
11817;SDS011;5966;52.402;5.322;2023-06-10T00:55:03;6.20;;;3.63;;
11817;SDS011;5966;52.402;5.322;2023-06-10T00:57:33;5.13;;;3.40;;
11817;SDS011;5966;52.402;5.322;2023-06-10T01:00:02;8.95;;;4.28;;
11817;SDS011;5966;52.402;5.322;2023-06-10T01:02:34;6.22;;;3.63;;
11817;SDS011;5966;52.402;5.322;2023-06-10T01:05:03;7.03;;;3.90;;
11817;SDS011;5966;52.402;5.322;2023-06-10T01:07:34;6.72;;;3.72;;
11817;SDS011;5966;52.402;5.322;2023-06-10T01:10:05;6.75;;;4.07;;
11817;SDS011;5966;52.402;5.322;2023-06-10T01:12:39;7.55;;;3.90;;
11817;SDS011;5966;52.402;5.322;2023-06-10T01:15:15;6.28;;;3.85;;
11817;SDS011;5966;52.402;5.322;2023-06-10T01:17:54;6.93;;;3.97;;
11817;SDS011;5966;52.402;5.322;2023-06-10T01:20:23;5.22;;;3.55;;
11817;SDS011;5966;52.402;5.322;2023-06-10T01:22:54;5.47;;;3.65;;
11817;SDS011;5966;52.402;5.322;2023-06-10T01:25:24;5.30;;;3.83;;
11817;SDS011;5966;52.402;5.322;2023-06-10T01:27:57;4.90;;;3.72;;
11817;SDS011;5966;52.402;5.322;2023-06-10T01:30:32;7.70;;;3.90;;
11817;SDS011;5966;52.402;5.322;2023-06-10T01:33:06;4.40;;;3.65;;
11817;SDS011;5966;52.402;5.322;2023-06-10T01:35:37;8.82;;;3.67;;
11817;SDS011;5966;52.402;5.322;2023-06-10T01:38:07;6.40;;;3.92;;
11817;SDS011;5966;52.402;5.322;2023-06-10T01:40:36;6.03;;;3.63;;
11817;SDS011;5966;52.402;5.322;2023-06-10T01:43:05;6.95;;;3.70;;
11817;SDS011;5966;52.402;5.322;2023-06-10T01:45:33;5.53;;;3.97;;
11817;SDS011;5966;52.402;5.322;2023-06-10T01:48:01;7.88;;;4.10;;
11817;SDS011;5966;52.402;5.322;2023-06-10T01:50:29;6.28;;;4.03;;
11817;SDS011;5966;52.402;5.322;2023-06-10T01:52:58;5.07;;;3.92;;
11817;SDS011;5966;52.402;5.322;2023-06-10T01:55:28;5.18;;;4.30;;
11817;SDS011;5966;52.402;5.322;2023-06-10T01:57:56;7.00;;;3.70;;
11817;SDS011;5966;52.402;5.322;2023-06-10T02:00:25;5.35;;;3.72;;
11817;SDS011;5966;52.402;5.322;2023-06-10T02:02:54;8.55;;;4.78;;
11817;SDS011;5966;52.402;5.322;2023-06-10T02:05:22;5.75;;;4.32;;
11817;SDS011;5966;52.402;5.322;2023-06-10T02:07:51;4.50;;;3.88;;
11817;SDS011;5966;52.402;5.322;2023-06-10T02:10:20;5.90;;;3.90;;
11817;SDS011;5966;52.402;5.322;2023-06-10T02:12:51;6.70;;;4.20;;
11817;SDS011;5966;52.402;5.322;2023-06-10T02:15:21;5.93;;;4.32;;
11817;SDS011;5966;52.402;5.322;2023-06-10T02:17:50;5.13;;;3.90;;
11817;SDS011;5966;52.402;5.322;2023-06-10T02:20:19;7.03;;;3.80;;
11817;SDS011;5966;52.402;5.322;2023-06-10T02:22:47;5.72;;;4.32;;
11817;SDS011;5966;52.402;5.322;2023-06-10T02:25:16;5.25;;;4.10;;
11817;SDS011;5966;52.402;5.322;2023-06-10T02:27:48;6.33;;;3.97;;
11817;SDS011;5966;52.402;5.322;2023-06-10T02:30:19;7.00;;;4.32;;
11817;SDS011;5966;52.402;5.322;2023-06-10T02:32:52;6.23;;;3.90;;
11817;SDS011;5966;52.402;5.322;2023-06-10T02:35:29;5.20;;;4.03;;
11817;SDS011;5966;52.402;5.322;2023-06-10T02:37:57;5.30;;;3.97;;
11817;SDS011;5966;52.402;5.322;2023-06-10T02:40:26;6.40;;;4.40;;
11817;SDS011;5966;52.402;5.322;2023-06-10T02:42:56;5.85;;;4.05;;
11817;SDS011;5966;52.402;5.322;2023-06-10T02:45:25;6.00;;;4.05;;
11817;SDS011;5966;52.402;5.322;2023-06-10T02:47:59;5.78;;;4.03;;
11817;SDS011;5966;52.402;5.322;2023-06-10T02:50:37;5.43;;;4.05;;
11817;SDS011;5966;52.402;5.322;2023-06-10T02:53:08;6.18;;;4.07;;
11817;SDS011;5966;52.402;5.322;2023-06-10T02:55:36;5.88;;;4.30;;
11817;SDS011;5966;52.402;5.322;2023-06-10T02:58:08;8.43;;;4.47;;
11817;SDS011;5966;52.402;5.322;2023-06-10T03:00:38;5.57;;;3.90;;
11817;SDS011;5966;52.402;5.322;2023-06-10T03:03:08;6.35;;;4.45;;
11817;SDS011;5966;52.402;5.322;2023-06-10T03:05:37;9.25;;;4.68;;
11817;SDS011;5966;52.402;5.322;2023-06-10T03:08:05;5.13;;;4.18;;
11817;SDS011;5966;52.402;5.322;2023-06-10T03:10:36;7.87;;;4.27;;
11817;SDS011;5966;52.402;5.322;2023-06-10T03:13:05;5.40;;;4.00;;
11817;SDS011;5966;52.402;5.322;2023-06-10T03:15:37;8.07;;;4.87;;
11817;SDS011;5966;52.402;5.322;2023-06-10T03:18:07;7.30;;;4.87;;
11817;SDS011;5966;52.402;5.322;2023-06-10T03:20:42;6.80;;;4.40;;
11817;SDS011;5966;52.402;5.322;2023-06-10T03:23:11;7.10;;;4.00;;
11817;SDS011;5966;52.402;5.322;2023-06-10T03:25:39;8.07;;;4.50;;
11817;SDS011;5966;52.402;5.322;2023-06-10T03:28:13;6.40;;;4.55;;
11817;SDS011;5966;52.402;5.322;2023-06-10T03:31:13;8.32;;;4.93;;
11817;SDS011;5966;52.402;5.322;2023-06-10T03:33:58;8.13;;;4.67;;
11817;SDS011;5966;52.402;5.322;2023-06-10T03:36:45;6.33;;;4.47;;
11817;SDS011;5966;52.402;5.322;2023-06-10T03:39:39;6.83;;;4.37;;
11817;SDS011;5966;52.402;5.322;2023-06-10T03:42:16;7.63;;;4.27;;
11817;SDS011;5966;52.402;5.322;2023-06-10T03:45:12;5.87;;;4.40;;
11817;SDS011;5966;52.402;5.322;2023-06-10T03:50:36;6.30;;;4.40;;
11817;SDS011;5966;52.402;5.322;2023-06-10T03:53:17;6.47;;;4.10;;
11817;SDS011;5966;52.402;5.322;2023-06-10T03:55:53;5.80;;;4.57;;
11817;SDS011;5966;52.402;5.322;2023-06-10T03:58:30;4.53;;;4.05;;
11817;SDS011;5966;52.402;5.322;2023-06-10T04:01:00;9.57;;;3.97;;
11817;SDS011;5966;52.402;5.322;2023-06-10T04:03:36;7.22;;;4.10;;
11817;SDS011;5966;52.402;5.322;2023-06-10T04:06:24;7.30;;;4.60;;
11817;SDS011;5966;52.402;5.322;2023-06-10T04:08:58;7.50;;;4.50;;
11817;SDS011;5966;52.402;5.322;2023-06-10T04:11:37;8.45;;;4.40;;
11817;SDS011;5966;52.402;5.322;2023-06-10T04:14:18;6.53;;;4.50;;
11817;SDS011;5966;52.402;5.322;2023-06-10T04:16:47;6.67;;;4.47;;
11817;SDS011;5966;52.402;5.322;2023-06-10T04:19:18;8.10;;;4.40;;
11817;SDS011;5966;52.402;5.322;2023-06-10T04:22:00;6.43;;;4.30;;
11817;SDS011;5966;52.402;5.322;2023-06-10T04:24:30;6.45;;;4.53;;
11817;SDS011;5966;52.402;5.322;2023-06-10T04:27:03;6.15;;;4.30;;
11817;SDS011;5966;52.402;5.322;2023-06-10T04:29:33;7.30;;;4.60;;
11817;SDS011;5966;52.402;5.322;2023-06-10T04:32:02;8.43;;;4.60;;
11817;SDS011;5966;52.402;5.322;2023-06-10T04:34:35;7.17;;;5.13;;
11817;SDS011;5966;52.402;5.322;2023-06-10T04:37:07;9.20;;;6.17;;
11817;SDS011;5966;52.402;5.322;2023-06-10T04:39:36;7.37;;;4.07;;
11817;SDS011;5966;52.402;5.322;2023-06-10T04:42:11;7.93;;;4.67;;
11817;SDS011;5966;52.402;5.322;2023-06-10T04:44:49;7.07;;;4.03;;
11817;SDS011;5966;52.402;5.322;2023-06-10T04:47:21;7.70;;;4.53;;
11817;SDS011;5966;52.402;5.322;2023-06-10T04:49:51;5.32;;;4.45;;
11817;SDS011;5966;52.402;5.322;2023-06-10T04:52:31;8.27;;;4.75;;
11817;SDS011;5966;52.402;5.322;2023-06-10T04:55:22;8.13;;;4.50;;
11817;SDS011;5966;52.402;5.322;2023-06-10T04:58:06;6.77;;;4.50;;
11817;SDS011;5966;52.402;5.322;2023-06-10T05:00:45;6.72;;;4.40;;
11817;SDS011;5966;52.402;5.322;2023-06-10T05:03:21;7.13;;;4.27;;
11817;SDS011;5966;52.402;5.322;2023-06-10T05:06:04;7.55;;;4.70;;
11817;SDS011;5966;52.402;5.322;2023-06-10T05:08:39;7.53;;;4.80;;
11817;SDS011;5966;52.402;5.322;2023-06-10T05:11:11;6.60;;;4.17;;
11817;SDS011;5966;52.402;5.322;2023-06-10T05:13:46;6.53;;;4.90;;
11817;SDS011;5966;52.402;5.322;2023-06-10T05:16:25;12.67;;;5.33;;
11817;SDS011;5966;52.402;5.322;2023-06-10T05:19:07;8.82;;;4.97;;
11817;SDS011;5966;52.402;5.322;2023-06-10T05:22:09;8.48;;;4.65;;
11817;SDS011;5966;52.402;5.322;2023-06-10T05:25:16;5.70;;;4.57;;
11817;SDS011;5966;52.402;5.322;2023-06-10T05:27:50;7.83;;;4.03;;
11817;SDS011;5966;52.402;5.322;2023-06-10T05:31:03;8.30;;;4.93;;
11817;SDS011;5966;52.402;5.322;2023-06-10T05:33:41;7.67;;;4.53;;
11817;SDS011;5966;52.402;5.322;2023-06-10T05:36:25;8.45;;;5.05;;
11817;SDS011;5966;52.402;5.322;2023-06-10T05:38:56;7.38;;;4.95;;
11817;SDS011;5966;52.402;5.322;2023-06-10T05:41:33;5.57;;;4.63;;
11817;SDS011;5966;52.402;5.322;2023-06-10T05:44:18;7.78;;;4.32;;
11817;SDS011;5966;52.402;5.322;2023-06-10T05:46:56;6.47;;;4.75;;
11817;SDS011;5966;52.402;5.322;2023-06-10T05:49:35;7.82;;;5.15;;
11817;SDS011;5966;52.402;5.322;2023-06-10T05:52:08;10.05;;;5.13;;
11817;SDS011;5966;52.402;5.322;2023-06-10T05:54:46;6.73;;;4.90;;
11817;SDS011;5966;52.402;5.322;2023-06-10T05:57:32;7.35;;;5.03;;
11817;SDS011;5966;52.402;5.322;2023-06-10T06:00:07;7.65;;;4.70;;
11817;SDS011;5966;52.402;5.322;2023-06-10T06:02:40;6.93;;;4.43;;
11817;SDS011;5966;52.402;5.322;2023-06-10T06:05:19;6.80;;;4.97;;
11817;SDS011;5966;52.402;5.322;2023-06-10T06:07:55;7.55;;;4.43;;
11817;SDS011;5966;52.402;5.322;2023-06-10T06:10:26;9.73;;;4.97;;
11817;SDS011;5966;52.402;5.322;2023-06-10T06:13:01;8.05;;;4.80;;
11817;SDS011;5966;52.402;5.322;2023-06-10T06:15:33;5.78;;;4.38;;
11817;SDS011;5966;52.402;5.322;2023-06-10T06:18:03;6.47;;;4.85;;
11817;SDS011;5966;52.402;5.322;2023-06-10T06:20:32;9.23;;;5.03;;
11817;SDS011;5966;52.402;5.322;2023-06-10T06:23:05;8.02;;;4.80;;
11817;SDS011;5966;52.402;5.322;2023-06-10T06:25:36;6.88;;;4.40;;
11817;SDS011;5966;52.402;5.322;2023-06-10T06:28:07;9.38;;;4.35;;
11817;SDS011;5966;52.402;5.322;2023-06-10T06:30:36;6.82;;;4.43;;
11817;SDS011;5966;52.402;5.322;2023-06-10T06:33:06;7.53;;;5.00;;
11817;SDS011;5966;52.402;5.322;2023-06-10T06:35:42;10.68;;;4.68;;
11817;SDS011;5966;52.402;5.322;2023-06-10T06:38:26;8.70;;;5.25;;
11817;SDS011;5966;52.402;5.322;2023-06-10T06:40:55;7.47;;;4.93;;
11817;SDS011;5966;52.402;5.322;2023-06-10T06:43:32;6.03;;;4.63;;
11817;SDS011;5966;52.402;5.322;2023-06-10T06:46:00;8.23;;;4.68;;
11817;SDS011;5966;52.402;5.322;2023-06-10T06:48:50;8.07;;;5.03;;
11817;SDS011;5966;52.402;5.322;2023-06-10T06:51:28;6.30;;;5.03;;
11817;SDS011;5966;52.402;5.322;2023-06-10T06:53:56;9.88;;;5.28;;
11817;SDS011;5966;52.402;5.322;2023-06-10T06:56:25;9.30;;;4.60;;
11817;SDS011;5966;52.402;5.322;2023-06-10T06:58:56;6.90;;;4.38;;
11817;SDS011;5966;52.402;5.322;2023-06-10T07:01:24;5.40;;;4.25;;
11817;SDS011;5966;52.402;5.322;2023-06-10T07:03:53;6.70;;;3.80;;
11817;SDS011;5966;52.402;5.322;2023-06-10T07:06:22;7.63;;;4.75;;
11817;SDS011;5966;52.402;5.322;2023-06-10T07:08:51;7.18;;;4.60;;
11817;SDS011;5966;52.402;5.322;2023-06-10T07:11:19;5.85;;;4.45;;
11817;SDS011;5966;52.402;5.322;2023-06-10T07:13:49;7.55;;;4.82;;
11817;SDS011;5966;52.402;5.322;2023-06-10T07:16:20;5.22;;;4.20;;
11817;SDS011;5966;52.402;5.322;2023-06-10T07:18:48;7.95;;;5.10;;
11817;SDS011;5966;52.402;5.322;2023-06-10T07:21:17;7.80;;;4.47;;
11817;SDS011;5966;52.402;5.322;2023-06-10T07:23:46;8.40;;;4.50;;
11817;SDS011;5966;52.402;5.322;2023-06-10T07:26:15;6.32;;;4.45;;
11817;SDS011;5966;52.402;5.322;2023-06-10T07:28:44;6.13;;;4.32;;
11817;SDS011;5966;52.402;5.322;2023-06-10T07:31:12;7.05;;;4.45;;
11817;SDS011;5966;52.402;5.322;2023-06-10T07:33:45;8.80;;;4.57;;
11817;SDS011;5966;52.402;5.322;2023-06-10T07:36:16;5.68;;;3.85;;
11817;SDS011;5966;52.402;5.322;2023-06-10T07:38:47;13.90;;;4.82;;
11817;SDS011;5966;52.402;5.322;2023-06-10T07:41:20;6.97;;;4.38;;
11817;SDS011;5966;52.402;5.322;2023-06-10T07:44:06;6.70;;;4.30;;
11817;SDS011;5966;52.402;5.322;2023-06-10T07:46:50;5.70;;;4.43;;
11817;SDS011;5966;52.402;5.322;2023-06-10T07:49:21;7.03;;;4.65;;
11817;SDS011;5966;52.402;5.322;2023-06-10T07:51:59;5.60;;;4.60;;
11817;SDS011;5966;52.402;5.322;2023-06-10T07:54:27;5.60;;;3.75;;
11817;SDS011;5966;52.402;5.322;2023-06-10T07:56:57;4.82;;;4.18;;
11817;SDS011;5966;52.402;5.322;2023-06-10T07:59:25;6.13;;;4.47;;
11817;SDS011;5966;52.402;5.322;2023-06-10T08:01:54;5.03;;;3.75;;
11817;SDS011;5966;52.402;5.322;2023-06-10T08:04:23;5.35;;;4.22;;
11817;SDS011;5966;52.402;5.322;2023-06-10T08:06:53;7.57;;;4.22;;
11817;SDS011;5966;52.402;5.322;2023-06-10T08:09:33;6.05;;;4.25;;
11817;SDS011;5966;52.402;5.322;2023-06-10T08:12:02;5.75;;;3.70;;
11817;SDS011;5966;52.402;5.322;2023-06-10T08:14:32;9.30;;;4.22;;
11817;SDS011;5966;52.402;5.322;2023-06-10T08:17:00;4.53;;;3.95;;
11817;SDS011;5966;52.402;5.322;2023-06-10T08:19:33;6.13;;;4.18;;
11817;SDS011;5966;52.402;5.322;2023-06-10T08:22:05;6.55;;;4.18;;
11817;SDS011;5966;52.402;5.322;2023-06-10T08:24:37;8.35;;;4.40;;
11817;SDS011;5966;52.402;5.322;2023-06-10T08:27:05;4.90;;;4.15;;
11817;SDS011;5966;52.402;5.322;2023-06-10T08:29:33;7.88;;;4.15;;
11817;SDS011;5966;52.402;5.322;2023-06-10T08:32:01;4.90;;;3.72;;
11817;SDS011;5966;52.402;5.322;2023-06-10T08:34:30;5.53;;;4.05;;
11817;SDS011;5966;52.402;5.322;2023-06-10T08:37:02;6.78;;;4.00;;
11817;SDS011;5966;52.402;5.322;2023-06-10T08:39:33;6.38;;;4.10;;
11817;SDS011;5966;52.402;5.322;2023-06-10T08:42:11;5.22;;;4.32;;
11817;SDS011;5966;52.402;5.322;2023-06-10T08:44:47;8.27;;;5.20;;
11817;SDS011;5966;52.402;5.322;2023-06-10T08:47:22;7.22;;;4.32;;
11817;SDS011;5966;52.402;5.322;2023-06-10T08:49:53;6.10;;;4.25;;
11817;SDS011;5966;52.402;5.322;2023-06-10T08:52:24;5.55;;;4.07;;
11817;SDS011;5966;52.402;5.322;2023-06-10T08:54:57;7.85;;;4.25;;
11817;SDS011;5966;52.402;5.322;2023-06-10T08:57:27;5.25;;;3.83;;
11817;SDS011;5966;52.402;5.322;2023-06-10T08:59:57;6.30;;;4.30;;
11817;SDS011;5966;52.402;5.322;2023-06-10T09:02:27;5.45;;;3.60;;
11817;SDS011;5966;52.402;5.322;2023-06-10T09:04:56;7.53;;;4.18;;
11817;SDS011;5966;52.402;5.322;2023-06-10T09:07:29;6.28;;;4.22;;
11817;SDS011;5966;52.402;5.322;2023-06-10T09:10:02;6.95;;;4.00;;
11817;SDS011;5966;52.402;5.322;2023-06-10T09:12:34;5.05;;;3.42;;
11817;SDS011;5966;52.402;5.322;2023-06-10T09:15:04;7.50;;;4.40;;
11817;SDS011;5966;52.402;5.322;2023-06-10T09:17:37;4.07;;;3.58;;
11817;SDS011;5966;52.402;5.322;2023-06-10T09:20:07;6.35;;;4.10;;
11817;SDS011;5966;52.402;5.322;2023-06-10T09:22:38;6.32;;;3.78;;
11817;SDS011;5966;52.402;5.322;2023-06-10T09:25:06;5.50;;;3.92;;
11817;SDS011;5966;52.402;5.322;2023-06-10T09:27:43;8.02;;;4.60;;
11817;SDS011;5966;52.402;5.322;2023-06-10T09:30:23;4.50;;;3.85;;
11817;SDS011;5966;52.402;5.322;2023-06-10T09:32:55;5.50;;;3.80;;
11817;SDS011;5966;52.402;5.322;2023-06-10T09:35:25;6.10;;;3.78;;
11817;SDS011;5966;52.402;5.322;2023-06-10T09:37:57;5.85;;;3.75;;
11817;SDS011;5966;52.402;5.322;2023-06-10T09:40:26;4.85;;;3.80;;
11817;SDS011;5966;52.402;5.322;2023-06-10T09:43:03;5.30;;;3.90;;
11817;SDS011;5966;52.402;5.322;2023-06-10T09:45:31;5.47;;;3.95;;
11817;SDS011;5966;52.402;5.322;2023-06-10T09:48:00;7.30;;;4.00;;
11817;SDS011;5966;52.402;5.322;2023-06-10T09:50:32;5.78;;;3.70;;
11817;SDS011;5966;52.402;5.322;2023-06-10T09:53:02;5.40;;;3.55;;
11817;SDS011;5966;52.402;5.322;2023-06-10T09:55:33;5.40;;;3.75;;
11817;SDS011;5966;52.402;5.322;2023-06-10T09:58:01;7.60;;;3.92;;
11817;SDS011;5966;52.402;5.322;2023-06-10T10:00:34;6.45;;;4.07;;
11817;SDS011;5966;52.402;5.322;2023-06-10T10:03:02;5.88;;;3.75;;
11817;SDS011;5966;52.402;5.322;2023-06-10T10:05:30;5.50;;;4.15;;
11817;SDS011;5966;52.402;5.322;2023-06-10T10:07:58;6.55;;;3.58;;
11817;SDS011;5966;52.402;5.322;2023-06-10T10:10:27;10.32;;;3.90;;
11817;SDS011;5966;52.402;5.322;2023-06-10T10:12:56;7.05;;;3.72;;
11817;SDS011;5966;52.402;5.322;2023-06-10T10:15:25;6.03;;;4.00;;
11817;SDS011;5966;52.402;5.322;2023-06-10T10:18:00;5.90;;;3.80;;
11817;SDS011;5966;52.402;5.322;2023-06-10T10:20:34;7.43;;;3.97;;
11817;SDS011;5966;52.402;5.322;2023-06-10T10:23:07;4.75;;;3.65;;
11817;SDS011;5966;52.402;5.322;2023-06-10T10:25:41;5.15;;;3.28;;
11817;SDS011;5966;52.402;5.322;2023-06-10T10:28:10;6.15;;;3.72;;
11817;SDS011;5966;52.402;5.322;2023-06-10T10:30:40;5.40;;;3.40;;
11817;SDS011;5966;52.402;5.322;2023-06-10T10:33:12;6.28;;;3.88;;
11817;SDS011;5966;52.402;5.322;2023-06-10T10:35:42;5.07;;;3.55;;
11817;SDS011;5966;52.402;5.322;2023-06-10T10:38:12;6.30;;;4.05;;
11817;SDS011;5966;52.402;5.322;2023-06-10T10:40:41;7.97;;;3.63;;
11817;SDS011;5966;52.402;5.322;2023-06-10T10:43:11;4.78;;;3.30;;
11817;SDS011;5966;52.402;5.322;2023-06-10T10:45:40;8.18;;;3.60;;
11817;SDS011;5966;52.402;5.322;2023-06-10T10:48:08;5.72;;;3.58;;
11817;SDS011;5966;52.402;5.322;2023-06-10T10:50:38;4.95;;;3.90;;
11817;SDS011;5966;52.402;5.322;2023-06-10T10:53:07;6.05;;;3.85;;
11817;SDS011;5966;52.402;5.322;2023-06-10T10:55:35;6.82;;;3.42;;
11817;SDS011;5966;52.402;5.322;2023-06-10T10:58:05;7.30;;;3.83;;
11817;SDS011;5966;52.402;5.322;2023-06-10T11:00:35;4.70;;;3.63;;
11817;SDS011;5966;52.402;5.322;2023-06-10T11:03:05;6.60;;;3.47;;
11817;SDS011;5966;52.402;5.322;2023-06-10T11:05:38;4.03;;;3.30;;
11817;SDS011;5966;52.402;5.322;2023-06-10T11:08:07;6.47;;;3.47;;
11817;SDS011;5966;52.402;5.322;2023-06-10T11:10:36;4.93;;;3.70;;
11817;SDS011;5966;52.402;5.322;2023-06-10T11:13:07;4.28;;;3.50;;
11817;SDS011;5966;52.402;5.322;2023-06-10T11:15:39;6.43;;;3.92;;
11817;SDS011;5966;52.402;5.322;2023-06-10T11:18:14;6.63;;;3.17;;
11817;SDS011;5966;52.402;5.322;2023-06-10T11:20:54;5.47;;;3.70;;
11817;SDS011;5966;52.402;5.322;2023-06-10T11:23:24;5.28;;;3.10;;
11817;SDS011;5966;52.402;5.322;2023-06-10T11:29:03;6.20;;;3.63;;
11817;SDS011;5966;52.402;5.322;2023-06-10T11:31:38;4.40;;;3.47;;
11817;SDS011;5966;52.402;5.322;2023-06-10T11:34:11;3.72;;;3.13;;
11817;SDS011;5966;52.402;5.322;2023-06-10T11:36:42;4.72;;;3.85;;
11817;SDS011;5966;52.402;5.322;2023-06-10T11:39:12;6.85;;;3.50;;
11817;SDS011;5966;52.402;5.322;2023-06-10T11:41:40;7.13;;;3.88;;
11817;SDS011;5966;52.402;5.322;2023-06-10T11:44:10;4.90;;;3.55;;
11817;SDS011;5966;52.402;5.322;2023-06-10T11:46:44;5.40;;;3.40;;
11817;SDS011;5966;52.402;5.322;2023-06-10T11:49:14;6.50;;;3.58;;
11817;SDS011;5966;52.402;5.322;2023-06-10T11:51:43;5.93;;;3.60;;
11817;SDS011;5966;52.402;5.322;2023-06-10T11:54:16;3.70;;;3.40;;
11817;SDS011;5966;52.402;5.322;2023-06-10T11:56:45;6.47;;;4.00;;
11817;SDS011;5966;52.402;5.322;2023-06-10T11:59:16;8.30;;;3.58;;
11817;SDS011;5966;52.402;5.322;2023-06-10T12:01:44;6.32;;;3.03;;
11817;SDS011;5966;52.402;5.322;2023-06-10T12:04:14;4.47;;;3.38;;
11817;SDS011;5966;52.402;5.322;2023-06-10T12:06:45;7.45;;;4.45;;
11817;SDS011;5966;52.402;5.322;2023-06-10T12:09:18;4.80;;;3.50;;
11817;SDS011;5966;52.402;5.322;2023-06-10T12:11:52;4.88;;;3.63;;
11817;SDS011;5966;52.402;5.322;2023-06-10T12:17:20;5.72;;;3.75;;
11817;SDS011;5966;52.402;5.322;2023-06-10T12:19:50;5.25;;;3.90;;
11817;SDS011;5966;52.402;5.322;2023-06-10T12:22:18;5.15;;;3.75;;
11817;SDS011;5966;52.402;5.322;2023-06-10T12:24:57;5.45;;;3.55;;
11817;SDS011;5966;52.402;5.322;2023-06-10T12:27:29;4.63;;;3.10;;
11817;SDS011;5966;52.402;5.322;2023-06-10T12:30:01;6.45;;;3.40;;
11817;SDS011;5966;52.402;5.322;2023-06-10T12:32:34;4.90;;;3.50;;
11817;SDS011;5966;52.402;5.322;2023-06-10T12:35:03;3.90;;;3.60;;
11817;SDS011;5966;52.402;5.322;2023-06-10T12:37:33;7.30;;;3.75;;
11817;SDS011;5966;52.402;5.322;2023-06-10T12:40:07;4.38;;;3.30;;
11817;SDS011;5966;52.402;5.322;2023-06-10T12:42:36;5.32;;;3.50;;
11817;SDS011;5966;52.402;5.322;2023-06-10T12:45:06;8.10;;;3.50;;
11817;SDS011;5966;52.402;5.322;2023-06-10T12:47:37;6.03;;;3.30;;
11817;SDS011;5966;52.402;5.322;2023-06-10T12:50:06;4.28;;;3.20;;
11817;SDS011;5966;52.402;5.322;2023-06-10T12:52:35;5.20;;;3.70;;
11817;SDS011;5966;52.402;5.322;2023-06-10T12:55:04;5.15;;;3.50;;
11817;SDS011;5966;52.402;5.322;2023-06-10T12:57:33;5.47;;;3.67;;
11817;SDS011;5966;52.402;5.322;2023-06-10T13:00:01;3.63;;;3.08;;
11817;SDS011;5966;52.402;5.322;2023-06-10T13:02:32;3.97;;;3.30;;
11817;SDS011;5966;52.402;5.322;2023-06-10T13:05:01;8.02;;;3.28;;
11817;SDS011;5966;52.402;5.322;2023-06-10T13:07:30;5.38;;;3.53;;
11817;SDS011;5966;52.402;5.322;2023-06-10T13:09:58;6.00;;;3.70;;
11817;SDS011;5966;52.402;5.322;2023-06-10T13:12:27;4.65;;;3.70;;
11817;SDS011;5966;52.402;5.322;2023-06-10T13:15:12;8.23;;;3.72;;
11817;SDS011;5966;52.402;5.322;2023-06-10T13:17:43;5.15;;;3.67;;
11817;SDS011;5966;52.402;5.322;2023-06-10T13:20:15;4.95;;;3.70;;
11817;SDS011;5966;52.402;5.322;2023-06-10T13:22:44;4.20;;;3.28;;
11817;SDS011;5966;52.402;5.322;2023-06-10T13:25:14;4.90;;;3.28;;
11817;SDS011;5966;52.402;5.322;2023-06-10T13:27:42;5.65;;;3.38;;
11817;SDS011;5966;52.402;5.322;2023-06-10T13:30:10;5.05;;;3.33;;
11817;SDS011;5966;52.402;5.322;2023-06-10T13:32:39;4.90;;;3.15;;
11817;SDS011;5966;52.402;5.322;2023-06-10T13:35:09;7.50;;;3.60;;
11817;SDS011;5966;52.402;5.322;2023-06-10T13:37:38;4.00;;;3.58;;
11817;SDS011;5966;52.402;5.322;2023-06-10T13:40:07;5.65;;;3.78;;
11817;SDS011;5966;52.402;5.322;2023-06-10T13:42:36;4.13;;;3.35;;
11817;SDS011;5966;52.402;5.322;2023-06-10T13:45:06;3.65;;;3.17;;
11817;SDS011;5966;52.402;5.322;2023-06-10T13:47:36;7.13;;;3.22;;
11817;SDS011;5966;52.402;5.322;2023-06-10T13:50:04;5.50;;;3.72;;
11817;SDS011;5966;52.402;5.322;2023-06-10T13:52:38;4.50;;;3.45;;
11817;SDS011;5966;52.402;5.322;2023-06-10T13:55:06;3.53;;;3.22;;
11817;SDS011;5966;52.402;5.322;2023-06-10T13:57:36;3.95;;;3.33;;
11817;SDS011;5966;52.402;5.322;2023-06-10T14:00:05;3.88;;;3.58;;
11817;SDS011;5966;52.402;5.322;2023-06-10T14:02:34;5.80;;;3.28;;
11817;SDS011;5966;52.402;5.322;2023-06-10T14:05:02;4.40;;;3.38;;
11817;SDS011;5966;52.402;5.322;2023-06-10T14:07:31;6.18;;;3.50;;
11817;SDS011;5966;52.402;5.322;2023-06-10T14:10:01;3.47;;;3.17;;
11817;SDS011;5966;52.402;5.322;2023-06-10T14:12:29;5.35;;;3.63;;
11817;SDS011;5966;52.402;5.322;2023-06-10T14:14:57;4.15;;;3.15;;
11817;SDS011;5966;52.402;5.322;2023-06-10T14:17:25;3.72;;;3.28;;
11817;SDS011;5966;52.402;5.322;2023-06-10T14:19:54;5.97;;;3.20;;
11817;SDS011;5966;52.402;5.322;2023-06-10T14:22:25;3.45;;;3.15;;
11817;SDS011;5966;52.402;5.322;2023-06-10T14:24:53;5.07;;;3.40;;
11817;SDS011;5966;52.402;5.322;2023-06-10T14:27:23;5.43;;;3.60;;
11817;SDS011;5966;52.402;5.322;2023-06-10T14:29:51;4.15;;;3.30;;
11817;SDS011;5966;52.402;5.322;2023-06-10T14:32:20;5.18;;;3.15;;
11817;SDS011;5966;52.402;5.322;2023-06-10T14:34:48;4.93;;;3.50;;
11817;SDS011;5966;52.402;5.322;2023-06-10T14:37:17;7.13;;;3.45;;
11817;SDS011;5966;52.402;5.322;2023-06-10T14:39:45;3.95;;;3.55;;
11817;SDS011;5966;52.402;5.322;2023-06-10T14:42:13;4.65;;;2.85;;
11817;SDS011;5966;52.402;5.322;2023-06-10T14:44:42;7.22;;;3.63;;
11817;SDS011;5966;52.402;5.322;2023-06-10T14:47:10;4.00;;;3.33;;
11817;SDS011;5966;52.402;5.322;2023-06-10T14:49:38;6.00;;;3.45;;
11817;SDS011;5966;52.402;5.322;2023-06-10T14:52:08;4.57;;;3.50;;
11817;SDS011;5966;52.402;5.322;2023-06-10T14:54:37;3.45;;;3.15;;
11817;SDS011;5966;52.402;5.322;2023-06-10T14:57:05;3.63;;;3.15;;
11817;SDS011;5966;52.402;5.322;2023-06-10T14:59:33;3.40;;;2.92;;
11817;SDS011;5966;52.402;5.322;2023-06-10T15:02:03;7.88;;;3.13;;
11817;SDS011;5966;52.402;5.322;2023-06-10T15:04:32;4.13;;;3.22;;
11817;SDS011;5966;52.402;5.322;2023-06-10T15:07:01;3.67;;;3.28;;
11817;SDS011;5966;52.402;5.322;2023-06-10T15:09:29;4.15;;;3.30;;
11817;SDS011;5966;52.402;5.322;2023-06-10T15:11:58;3.22;;;2.90;;
11817;SDS011;5966;52.402;5.322;2023-06-10T15:14:26;4.38;;;3.10;;
11817;SDS011;5966;52.402;5.322;2023-06-10T15:16:54;3.60;;;2.97;;
11817;SDS011;5966;52.402;5.322;2023-06-10T15:19:26;3.60;;;3.00;;
11817;SDS011;5966;52.402;5.322;2023-06-10T15:21:55;5.85;;;3.13;;
11817;SDS011;5966;52.402;5.322;2023-06-10T15:24:23;3.78;;;3.10;;
11817;SDS011;5966;52.402;5.322;2023-06-10T15:26:51;3.88;;;2.67;;
11817;SDS011;5966;52.402;5.322;2023-06-10T15:29:19;3.95;;;3.00;;
11817;SDS011;5966;52.402;5.322;2023-06-10T15:31:47;3.75;;;2.92;;
11817;SDS011;5966;52.402;5.322;2023-06-10T15:34:16;4.43;;;2.88;;
11817;SDS011;5966;52.402;5.322;2023-06-10T15:36:47;3.45;;;3.15;;